Time;durP1;ratioP1;P1;durP2;ratioP2;P2;SDS_P1;SDS_P2;PMS_P1;PMS_P2;Temp;Humidity;BMP_temperature;BMP_pressure;BME280_temperature;BME280_humidity;BME280_pressure;Samples;Min_cycle;Max_cycle;Signal;HPM_P1;HPM_P2
2023/09/12 00:02:21;;;;;;;0.00;0.00;;;;;;;;;;5034163;28;20034;-82
2023/09/12 00:04:50;;;;;;;0.00;0.00;;;;;;;;;;5034749;28;20549;-82
2023/09/12 00:07:16;;;;;;;0.00;0.00;;;;;;;;;;5035469;28;20041;-81
2023/09/12 00:09:42;;;;;;;0.00;0.00;;;;;;;;;;5035664;28;20378;-82
2023/09/12 00:12:08;;;;;;;0.00;0.00;;;;;;;;;;5035375;28;20049;-81
2023/09/12 00:14:34;;;;;;;0.00;0.00;;;;;;;;;;5035342;28;20048;-82
2023/09/12 00:17:00;;;;;;;0.00;0.00;;;;;;;;;;5033866;28;20084;-82
2023/09/12 00:19:26;;;;;;;0.00;0.00;;;;;;;;;;5035236;28;20400;-82
2023/09/12 00:21:53;;;;;;;0.00;0.00;;;;;;;;;;5035438;28;20042;-82
2023/09/12 00:24:19;;;;;;;0.00;0.00;;;;;;;;;;5035421;28;20045;-82
2023/09/12 00:26:46;;;;;;;0.00;0.00;;;;;;;;;;5035366;28;20068;-82
2023/09/12 00:29:12;;;;;;;0.00;0.00;;;;;;;;;;5033876;28;20509;-82
2023/09/12 00:31:37;;;;;;;0.00;0.00;;;;;;;;;;5035408;28;20124;-82
2023/09/12 00:34:04;;;;;;;0.00;0.00;;;;;;;;;;5033742;28;20451;-82
2023/09/12 00:36:30;;;;;;;0.00;0.00;;;;;;;;;;5034187;28;20124;-82
2023/09/12 00:38:56;;;;;;;0.00;0.00;;;;;;;;;;5035208;28;20139;-82
2023/09/12 00:41:22;;;;;;;0.00;0.00;;;;;;;;;;5033748;28;20350;-82
2023/09/12 00:43:48;;;;;;;0.00;0.00;;;;;;;;;;5033483;28;20059;-82
2023/09/12 00:46:18;;;;;;;0.10;0.10;;;;;;;;;;5034027;28;20049;-82
2023/09/12 00:48:45;;;;;;;0.00;0.00;;;;;;;;;;5017054;28;20041;-82
2023/09/12 00:51:11;;;;;;;0.00;0.00;;;;;;;;;;5035036;28;20139;-82
2023/09/12 00:53:37;;;;;;;0.00;0.00;;;;;;;;;;5034672;28;20037;-83
2023/09/12 00:56:03;;;;;;;0.00;0.00;;;;;;;;;;5034729;28;20515;-82
2023/09/12 00:58:29;;;;;;;0.00;0.00;;;;;;;;;;5034365;28;20077;-82
2023/09/12 01:00:57;;;;;;;0.00;0.00;;;;;;;;;;5034410;28;20515;-82
2023/09/12 01:03:23;;;;;;;0.00;0.00;;;;;;;;;;5033180;28;20139;-82
2023/09/12 01:05:49;;;;;;;0.00;0.00;;;;;;;;;;5033250;28;20037;-82
2023/09/12 01:08:16;;;;;;;0.00;0.00;;;;;;;;;;5034358;28;20043;-82
2023/09/12 01:10:45;;;;;;;0.00;0.00;;;;;;;;;;5033160;28;20115;-82
2023/09/12 01:13:12;;;;;;;0.00;0.00;;;;;;;;;;5033269;28;20045;-82
2023/09/12 01:15:38;;;;;;;0.00;0.00;;;;;;;;;;5033365;28;20056;-82
2023/09/12 01:18:04;;;;;;;0.00;0.00;;;;;;;;;;5032861;28;20045;-82
2023/09/12 01:20:32;;;;;;;0.00;0.00;;;;;;;;;;5034433;28;20080;-82
2023/09/12 01:23:31;;;;;;;0.00;0.00;;;;;;;;;;5034253;28;20104;-82
2023/09/12 01:26:09;;;;;;;0.47;0.30;;;;;;;;;;4990528;28;20255;-82
2023/09/12 01:28:36;;;;;;;0.00;0.00;;;;;;;;;;5032774;28;20041;-83
2023/09/12 01:31:03;;;;;;;0.00;0.00;;;;;;;;;;5034136;28;20083;-82
2023/09/12 01:33:29;;;;;;;0.00;0.00;;;;;;;;;;5033956;28;20077;-83
2023/09/12 01:35:55;;;;;;;0.00;0.00;;;;;;;;;;5032974;28;20045;-82
2023/09/12 01:38:22;;;;;;;0.00;0.00;;;;;;;;;;5033949;28;20045;-82
2023/09/12 01:40:52;;;;;;;0.10;0.00;;;;;;;;;;5032620;28;20049;-82
2023/09/12 01:43:19;;;;;;;0.00;0.00;;;;;;;;;;5033872;28;20057;-82
2023/09/12 01:45:53;;;;;;;0.00;0.00;;;;;;;;;;5033130;28;20037;-83
2023/09/12 01:48:20;;;;;;;0.20;0.00;;;;;;;;;;5032677;28;20072;-82
2023/09/12 01:50:46;;;;;;;0.00;0.00;;;;;;;;;;5033976;28;20355;-82
2023/09/12 01:53:14;;;;;;;0.00;0.00;;;;;;;;;;5032493;28;20057;-82
2023/09/12 01:55:41;;;;;;;0.63;0.10;;;;;;;;;;5034477;28;20082;-84
2023/09/12 01:58:07;;;;;;;0.00;0.00;;;;;;;;;;5033984;28;20062;-83
2023/09/12 02:00:34;;;;;;;0.00;0.00;;;;;;;;;;5032780;28;20423;-82
2023/09/12 02:02:59;;;;;;;0.00;0.00;;;;;;;;;;5032049;28;20049;-82
2023/09/12 02:05:26;;;;;;;0.00;0.00;;;;;;;;;;5032454;28;20044;-82
2023/09/12 02:07:52;;;;;;;0.00;0.00;;;;;;;;;;5031887;28;20044;-82
2023/09/12 02:10:18;;;;;;;0.00;0.00;;;;;;;;;;5032165;28;20046;-82
2023/09/12 02:12:44;;;;;;;0.00;0.00;;;;;;;;;;5031993;28;20052;-82
2023/09/12 02:15:12;;;;;;;0.00;0.00;;;;;;;;;;5033264;28;20052;-82
2023/09/12 02:17:38;;;;;;;0.00;0.00;;;;;;;;;;5033103;28;20049;-82
2023/09/12 02:20:05;;;;;;;0.00;0.00;;;;;;;;;;5031722;28;20050;-82
2023/09/12 02:22:31;;;;;;;0.00;0.00;;;;;;;;;;5032061;28;20319;-82
2023/09/12 02:24:57;;;;;;;0.00;0.00;;;;;;;;;;5033191;28;20048;-82
2023/09/12 02:27:23;;;;;;;0.00;0.00;;;;;;;;;;5033400;28;20046;-82
2023/09/12 02:29:49;;;;;;;0.00;0.00;;;;;;;;;;5032696;28;20124;-82
2023/09/12 02:32:15;;;;;;;0.00;0.00;;;;;;;;;;5033303;28;20069;-82
2023/09/12 02:34:41;;;;;;;0.00;0.00;;;;;;;;;;5031949;28;20119;-82
2023/09/12 02:37:07;;;;;;;0.00;0.00;;;;;;;;;;5031554;28;20045;-82
2023/09/12 02:39:33;;;;;;;0.00;0.00;;;;;;;;;;5032623;28;20467;-82
2023/09/12 02:41:59;;;;;;;0.00;0.00;;;;;;;;;;5031850;28;20068;-82
2023/09/12 02:44:25;;;;;;;0.00;0.00;;;;;;;;;;5031690;28;20124;-82
2023/09/12 02:46:51;;;;;;;0.00;0.00;;;;;;;;;;5014985;28;20124;-82
2023/09/12 02:49:17;;;;;;;0.00;0.00;;;;;;;;;;5031339;28;20096;-82
2023/09/12 02:51:43;;;;;;;0.00;0.00;;;;;;;;;;5031510;28;20056;-82
2023/09/12 02:54:09;;;;;;;0.00;0.00;;;;;;;;;;5031443;28;20049;-82
2023/09/12 02:56:35;;;;;;;0.00;0.00;;;;;;;;;;5031191;28;20045;-82
2023/09/12 02:59:01;;;;;;;0.20;0.10;;;;;;;;;;5032244;28;20428;-82
2023/09/12 03:01:28;;;;;;;0.00;0.00;;;;;;;;;;5031107;28;20103;-82
2023/09/12 03:03:54;;;;;;;0.00;0.00;;;;;;;;;;5031023;28;20099;-82
2023/09/12 03:06:20;;;;;;;0.00;0.00;;;;;;;;;;5031403;28;20106;-82
2023/09/12 03:08:48;;;;;;;0.00;0.00;;;;;;;;;;5032400;28;20175;-83
2023/09/12 03:11:14;;;;;;;0.00;0.00;;;;;;;;;;5031113;28;20041;-82
2023/09/12 03:13:41;;;;;;;0.00;0.00;;;;;;;;;;5031972;28;20060;-81
2023/09/12 03:16:13;;;;;;;0.20;0.10;;;;;;;;;;5032306;28;20511;-82
2023/09/12 03:18:39;;;;;;;0.00;0.00;;;;;;;;;;5031336;28;20385;-81
2023/09/12 03:21:05;;;;;;;0.00;0.00;;;;;;;;;;5031007;28;20050;-81
2023/09/12 03:23:32;;;;;;;0.00;0.00;;;;;;;;;;5032348;28;20076;-81
2023/09/12 03:26:04;;;;;;;0.00;0.00;;;;;;;;;;5031162;28;20404;-82
2023/09/12 03:28:30;;;;;;;0.00;0.00;;;;;;;;;;5030995;28;20065;-82
2023/09/12 03:31:11;;;;;;;0.00;0.00;;;;;;;;;;5035997;28;20401;-82
2023/09/12 03:33:37;;;;;;;0.00;0.00;;;;;;;;;;5036333;28;20064;-83
2023/09/12 03:36:03;;;;;;;0.00;0.00;;;;;;;;;;5036353;28;20073;-82
2023/09/12 03:38:29;;;;;;;0.00;0.00;;;;;;;;;;5034847;28;20037;-82
2023/09/12 03:40:55;;;;;;;0.00;0.00;;;;;;;;;;5034567;28;20046;-81
2023/09/12 03:43:21;;;;;;;0.00;0.00;;;;;;;;;;5034791;28;20037;-82
2023/09/12 03:45:47;;;;;;;0.00;0.00;;;;;;;;;;5034830;28;20041;-82
2023/09/12 03:48:13;;;;;;;0.00;0.00;;;;;;;;;;5034780;28;20042;-82
2023/09/12 03:50:41;;;;;;;0.00;0.00;;;;;;;;;;5034408;28;20041;-82
2023/09/12 03:53:07;;;;;;;0.00;0.00;;;;;;;;;;5035959;28;20099;-82
2023/09/12 03:55:33;;;;;;;0.00;0.00;;;;;;;;;;5034446;28;20121;-83
2023/09/12 03:57:59;;;;;;;0.00;0.00;;;;;;;;;;5034636;28;20230;-82
2023/09/12 04:00:25;;;;;;;0.00;0.00;;;;;;;;;;5035554;28;20119;-82
2023/09/12 04:02:50;;;;;;;0.00;0.00;;;;;;;;;;5035771;28;20048;-82
2023/09/12 04:05:16;;;;;;;0.00;0.00;;;;;;;;;;5035534;28;20075;-83
2023/09/12 04:07:42;;;;;;;0.00;0.00;;;;;;;;;;5035670;28;20520;-83
2023/09/12 04:10:09;;;;;;;0.20;0.10;;;;;;;;;;5033959;28;20057;-82
2023/09/12 04:12:35;;;;;;;0.00;0.00;;;;;;;;;;5034293;28;20120;-82
2023/09/12 04:15:00;;;;;;;0.00;0.00;;;;;;;;;;5017785;28;20139;-82
2023/09/12 04:17:26;;;;;;;0.00;0.00;;;;;;;;;;5035614;28;20095;-82
2023/09/12 04:19:53;;;;;;;0.00;0.00;;;;;;;;;;5035217;28;20445;-83
2023/09/12 04:22:19;;;;;;;0.00;0.00;;;;;;;;;;5034084;28;20092;-82
2023/09/12 04:24:44;;;;;;;0.30;0.30;;;;;;;;;;5034043;28;20045;-82
2023/09/12 04:27:10;;;;;;;0.00;0.00;;;;;;;;;;5035353;28;20029;-82
2023/09/12 04:29:36;;;;;;;0.00;0.00;;;;;;;;;;5035122;28;20112;-82
2023/09/12 04:32:03;;;;;;;0.30;0.00;;;;;;;;;;5033908;28;20042;-82
2023/09/12 04:34:30;;;;;;;0.00;0.00;;;;;;;;;;5017201;28;20060;-82
2023/09/12 04:36:56;;;;;;;0.00;0.00;;;;;;;;;;5035025;28;20037;-82
2023/09/12 04:39:22;;;;;;;0.00;0.00;;;;;;;;;;5017138;28;20433;-81
2023/09/12 04:41:48;;;;;;;0.00;0.00;;;;;;;;;;5034713;28;20124;-81
2023/09/12 04:44:14;;;;;;;0.00;0.00;;;;;;;;;;5017312;28;20080;-82
2023/09/12 04:46:40;;;;;;;0.00;0.00;;;;;;;;;;5034776;28;20076;-82
2023/09/12 04:49:06;;;;;;;0.00;0.00;;;;;;;;;;5033816;28;20053;-82
2023/09/12 04:51:32;;;;;;;0.00;0.00;;;;;;;;;;5034462;28;20048;-80
2023/09/12 04:53:58;;;;;;;0.00;0.00;;;;;;;;;;5034773;28;20561;-82
2023/09/12 04:56:24;;;;;;;0.00;0.00;;;;;;;;;;5034521;28;20042;-82
2023/09/12 04:58:50;;;;;;;0.00;0.00;;;;;;;;;;5033341;28;20342;-81
2023/09/12 05:01:16;;;;;;;0.00;0.00;;;;;;;;;;5033127;28;20438;-82
2023/09/12 05:03:43;;;;;;;0.00;0.00;;;;;;;;;;5033367;28;20042;-83
2023/09/12 05:06:09;;;;;;;0.00;0.00;;;;;;;;;;5034329;28;20042;-83
2023/09/12 05:08:35;;;;;;;0.10;0.10;;;;;;;;;;5033198;28;20396;-82
2023/09/12 05:11:02;;;;;;;0.00;0.00;;;;;;;;;;5034200;28;20045;-83
2023/09/12 05:13:28;;;;;;;0.00;0.00;;;;;;;;;;5033352;28;20041;-83
2023/09/12 05:15:55;;;;;;;0.00;0.00;;;;;;;;;;5034186;28;20505;-83
2023/09/12 05:18:21;;;;;;;0.00;0.00;;;;;;;;;;5034586;28;20046;-83
2023/09/12 05:20:47;;;;;;;0.00;0.00;;;;;;;;;;5033819;28;20041;-83
2023/09/12 05:23:13;;;;;;;0.00;0.00;;;;;;;;;;5033098;28;20049;-83
2023/09/12 05:25:39;;;;;;;0.40;0.00;;;;;;;;;;5034074;28;20508;-83
2023/09/12 05:28:05;;;;;;;0.05;0.03;;;;;;;;;;5034241;28;20094;-83
2023/09/12 05:30:31;;;;;;;0.00;0.00;;;;;;;;;;5034032;28;20048;-83
2023/09/12 05:32:57;;;;;;;0.00;0.00;;;;;;;;;;5032879;28;20055;-83
2023/09/12 05:35:25;;;;;;;0.00;0.00;;;;;;;;;;5032532;28;20381;-83
2023/09/12 05:37:51;;;;;;;0.00;0.00;;;;;;;;;;5032736;28;20386;-83
2023/09/12 05:40:17;;;;;;;0.00;0.00;;;;;;;;;;5032391;28;20047;-82
2023/09/12 05:42:43;;;;;;;0.00;0.00;;;;;;;;;;5032573;28;20080;-83
2023/09/12 05:45:09;;;;;;;0.00;0.00;;;;;;;;;;5033671;28;20111;-83
2023/09/12 05:47:35;;;;;;;0.00;0.00;;;;;;;;;;5032557;28;20041;-83
2023/09/12 05:50:05;;;;;;;0.00;0.00;;;;;;;;;;5032596;28;20208;-83
2023/09/12 05:52:31;;;;;;;0.00;0.00;;;;;;;;;;5032078;28;20124;-83
2023/09/12 05:54:57;;;;;;;0.00;0.00;;;;;;;;;;5032372;28;20049;-83
2023/09/12 05:57:23;;;;;;;0.00;0.00;;;;;;;;;;5032257;28;20049;-83
2023/09/12 05:59:50;;;;;;;0.00;0.00;;;;;;;;;;5032614;28;20116;-83
2023/09/12 06:02:17;;;;;;;0.00;0.00;;;;;;;;;;5031990;28;20543;-83
2023/09/12 06:04:43;;;;;;;0.00;0.00;;;;;;;;;;5032381;28;20164;-83
2023/09/12 06:07:09;;;;;;;0.00;0.00;;;;;;;;;;5032149;28;20096;-83
2023/09/12 06:09:35;;;;;;;0.00;0.00;;;;;;;;;;5032136;28;20404;-83
2023/09/12 06:12:01;;;;;;;0.00;0.00;;;;;;;;;;5033418;28;20087;-83
2023/09/12 06:14:27;;;;;;;0.00;0.00;;;;;;;;;;5032522;28;20389;-83
2023/09/12 06:16:53;;;;;;;0.00;0.00;;;;;;;;;;5033186;28;20049;-83
2023/09/12 06:19:19;;;;;;;0.00;0.00;;;;;;;;;;5033466;28;20053;-82
2023/09/12 06:21:45;;;;;;;0.00;0.00;;;;;;;;;;5033060;28;20504;-83
2023/09/12 06:24:13;;;;;;;0.00;0.00;;;;;;;;;;5032187;28;20052;-83
2023/09/12 06:26:39;;;;;;;0.32;0.10;;;;;;;;;;5033321;28;20034;-83
2023/09/12 06:29:05;;;;;;;0.00;0.00;;;;;;;;;;5032515;28;20045;-83
2023/09/12 06:31:31;;;;;;;0.00;0.00;;;;;;;;;;5033101;28;20120;-83
2023/09/12 06:33:57;;;;;;;0.00;0.00;;;;;;;;;;5033163;28;20120;-85
2023/09/12 06:36:29;;;;;;;0.00;0.00;;;;;;;;;;5031801;28;20044;-86
2023/09/12 06:38:55;;;;;;;0.00;0.00;;;;;;;;;;5032522;28;20048;-91
2023/09/12 06:41:21;;;;;;;0.00;0.00;;;;;;;;;;5032706;28;20045;-83
2023/09/12 06:43:47;;;;;;;0.00;0.00;;;;;;;;;;5032943;28;20044;-83
2023/09/12 06:46:13;;;;;;;0.00;0.00;;;;;;;;;;5032573;28;20043;-81
2023/09/12 06:48:39;;;;;;;0.20;0.20;;;;;;;;;;5032993;28;20052;-83
2023/09/12 06:51:06;;;;;;;0.00;0.00;;;;;;;;;;5032632;28;20516;-84
2023/09/12 06:53:32;;;;;;;0.00;0.00;;;;;;;;;;5031480;28;20488;-84
2023/09/12 06:55:58;;;;;;;0.00;0.00;;;;;;;;;;5031224;28;20049;-86
2023/09/12 06:58:25;;;;;;;0.00;0.00;;;;;;;;;;5032496;28;20057;-87
2023/09/12 07:00:51;;;;;;;0.00;0.00;;;;;;;;;;5031430;28;20447;-89
2023/09/12 07:03:17;;;;;;;0.00;0.00;;;;;;;;;;5015236;28;20048;-86
2023/09/12 07:05:43;;;;;;;0.00;0.00;;;;;;;;;;5032428;28;20071;-84
2023/09/12 07:08:10;;;;;;;0.00;0.00;;;;;;;;;;5031266;28;20034;-84
2023/09/12 07:10:36;;;;;;;0.00;0.00;;;;;;;;;;5032708;28;20045;-84
2023/09/12 07:13:02;;;;;;;0.00;0.00;;;;;;;;;;5031306;28;20049;-84
2023/09/12 07:15:28;;;;;;;0.00;0.00;;;;;;;;;;5031027;28;20120;-84
2023/09/12 07:17:56;;;;;;;0.00;0.00;;;;;;;;;;5030973;28;20180;-84
2023/09/12 07:20:22;;;;;;;0.20;0.10;;;;;;;;;;5030992;28;20049;-84
2023/09/12 07:22:48;;;;;;;0.00;0.00;;;;;;;;;;5030864;28;20037;-84
2023/09/12 07:25:14;;;;;;;0.00;0.00;;;;;;;;;;5031173;28;20111;-84
2023/09/12 07:27:40;;;;;;;0.10;0.00;;;;;;;;;;5030845;28;20077;-84
2023/09/12 07:30:07;;;;;;;0.00;0.00;;;;;;;;;;5032981;28;20049;-84
2023/09/12 07:32:32;;;;;;;0.00;0.00;;;;;;;;;;5030878;28;20052;-84
2023/09/12 07:34:59;;;;;;;0.00;0.00;;;;;;;;;;5032482;28;20037;-84
2023/09/12 07:37:24;;;;;;;0.00;0.00;;;;;;;;;;5030615;28;20482;-84
2023/09/12 07:39:51;;;;;;;0.00;0.00;;;;;;;;;;5032356;28;20045;-84
2023/09/12 07:42:17;;;;;;;0.00;0.00;;;;;;;;;;5031972;28;20042;-83
2023/09/12 07:44:43;;;;;;;0.00;0.00;;;;;;;;;;5032276;28;20477;-83
2023/09/12 07:47:09;;;;;;;0.00;0.00;;;;;;;;;;5031364;28;20042;-86
2023/09/12 07:49:35;;;;;;;0.00;0.00;;;;;;;;;;5031101;28;20038;-83
2023/09/12 07:52:01;;;;;;;0.00;0.00;;;;;;;;;;5030778;28;20504;-83
2023/09/12 07:54:28;;;;;;;0.00;0.00;;;;;;;;;;5014780;28;20050;-83
2023/09/12 07:56:54;;;;;;;0.00;0.00;;;;;;;;;;5030847;28;20049;-83
2023/09/12 07:59:20;;;;;;;0.00;0.00;;;;;;;;;;5031724;28;20492;-83
2023/09/12 08:01:46;;;;;;;0.00;0.00;;;;;;;;;;5030274;28;20145;-83
2023/09/12 08:04:12;;;;;;;0.00;0.00;;;;;;;;;;5030613;28;20044;-83
2023/09/12 08:06:38;;;;;;;0.00;0.00;;;;;;;;;;5030586;28;20048;-82
2023/09/12 08:09:04;;;;;;;0.05;0.05;;;;;;;;;;5030662;28;20265;-83
2023/09/12 08:11:30;;;;;;;0.00;0.00;;;;;;;;;;5031646;28;20037;-83
2023/09/12 08:13:56;;;;;;;0.00;0.00;;;;;;;;;;5031796;28;20128;-82
2023/09/12 08:16:22;;;;;;;0.00;0.00;;;;;;;;;;5031798;28;20095;-89
2023/09/12 08:18:48;;;;;;;0.00;0.00;;;;;;;;;;5017516;28;20481;-83
2023/09/12 08:21:14;;;;;;;0.00;0.00;;;;;;;;;;5035368;28;20408;-83
2023/09/12 08:23:40;;;;;;;0.00;0.00;;;;;;;;;;5034029;28;20094;-83
2023/09/12 08:26:09;;;;;;;0.00;0.00;;;;;;;;;;5035290;28;20029;-86
2023/09/12 08:28:35;;;;;;;0.00;0.00;;;;;;;;;;5033652;28;20473;-83
2023/09/12 08:31:01;;;;;;;0.00;0.00;;;;;;;;;;5035245;28;20124;-83
2023/09/12 08:33:27;;;;;;;0.10;0.00;;;;;;;;;;5035071;28;20121;-83
2023/09/12 08:35:53;;;;;;;0.00;0.00;;;;;;;;;;5035097;28;20472;-81
2023/09/12 08:38:19;;;;;;;0.00;0.00;;;;;;;;;;5033712;28;20045;-83
2023/09/12 08:40:50;;;;;;;0.32;0.13;;;;;;;;;;5033898;28;20041;-83
2023/09/12 08:43:16;;;;;;;0.00;0.00;;;;;;;;;;5033699;28;20044;-83
2023/09/12 08:45:44;;;;;;;0.00;0.00;;;;;;;;;;5033744;28;20099;-83
2023/09/12 08:48:11;;;;;;;0.00;0.00;;;;;;;;;;5034720;28;20047;-84
2023/09/12 08:50:38;;;;;;;0.00;0.00;;;;;;;;;;5034749;28;20099;-84
2023/09/12 08:53:04;;;;;;;0.00;0.00;;;;;;;;;;5033251;28;20056;-84
2023/09/12 08:55:31;;;;;;;0.00;0.00;;;;;;;;;;5033589;28;20037;-83
2023/09/12 08:57:57;;;;;;;0.00;0.00;;;;;;;;;;5033110;28;20100;-84
2023/09/12 09:00:24;;;;;;;0.00;0.00;;;;;;;;;;5033479;28;20053;-83
2023/09/12 09:02:51;;;;;;;0.00;0.00;;;;;;;;;;5033138;28;20204;-83
2023/09/12 09:05:17;;;;;;;0.00;0.00;;;;;;;;;;5034737;28;20038;-83
2023/09/12 09:07:44;;;;;;;0.00;0.00;;;;;;;;;;5033105;28;20469;-83
2023/09/12 09:10:17;;;;;;;0.00;0.00;;;;;;;;;;5033435;28;20056;-83
2023/09/12 09:12:47;;;;;;;0.00;0.00;;;;;;;;;;5033058;28;20084;-84
2023/09/12 09:15:22;;;;;;;0.00;0.00;;;;;;;;;;5034454;28;20045;-83
2023/09/12 09:17:50;;;;;;;0.00;0.00;;;;;;;;;;5034240;28;20338;-83
2023/09/12 09:20:27;;;;;;;0.00;0.00;;;;;;;;;;5032834;28;20045;-83
2023/09/12 09:23:00;;;;;;;0.00;0.00;;;;;;;;;;5034182;28;20500;-83
2023/09/12 09:25:27;;;;;;;0.00;0.00;;;;;;;;;;5032965;28;20429;-82
2023/09/12 09:27:53;;;;;;;0.00;0.00;;;;;;;;;;5033814;28;20037;-83
2023/09/12 09:30:20;;;;;;;0.00;0.00;;;;;;;;;;5033282;28;20444;-82
2023/09/12 09:32:47;;;;;;;0.00;0.00;;;;;;;;;;5032732;28;20124;-83
2023/09/12 09:35:13;;;;;;;0.00;0.00;;;;;;;;;;5033011;28;20125;-86
2023/09/12 09:37:39;;;;;;;0.00;0.00;;;;;;;;;;5032665;28;20068;-82
2023/09/12 09:40:07;;;;;;;0.00;0.00;;;;;;;;;;5032539;28;20049;-83
2023/09/12 09:42:33;;;;;;;0.00;0.00;;;;;;;;;;5032644;28;20049;-83
2023/09/12 09:44:59;;;;;;;0.00;0.00;;;;;;;;;;5032808;28;20562;-82
2023/09/12 09:47:25;;;;;;;0.00;0.00;;;;;;;;;;5032302;28;20377;-82
2023/09/12 09:49:52;;;;;;;0.00;0.00;;;;;;;;;;5034010;28;20124;-81
2023/09/12 09:52:25;;;;;;;0.00;0.00;;;;;;;;;;5032355;28;20385;-83
2023/09/12 09:54:51;;;;;;;0.00;0.00;;;;;;;;;;5034041;28;20330;-83
2023/09/12 09:57:17;;;;;;;0.00;0.00;;;;;;;;;;5032501;28;20098;-85
2023/09/12 09:59:49;;;;;;;0.00;0.00;;;;;;;;;;5032070;28;20308;-83
2023/09/12 10:02:21;;;;;;;0.00;0.00;;;;;;;;;;5032452;28;20053;-84
2023/09/12 10:04:47;;;;;;;0.00;0.00;;;;;;;;;;5032219;28;20046;-84
2023/09/12 10:07:14;;;;;;;0.00;0.00;;;;;;;;;;5032464;28;20435;-85
2023/09/12 10:09:42;;;;;;;0.00;0.00;;;;;;;;;;5033344;28;20449;-84
2023/09/12 10:12:08;;;;;;;0.00;0.00;;;;;;;;;;5032497;28;20461;-84
2023/09/12 10:14:35;;;;;;;0.00;0.00;;;;;;;;;;4999145;28;20049;-84
2023/09/12 10:17:02;;;;;;;0.00;0.00;;;;;;;;;;5032120;28;20098;-84
2023/09/12 10:19:44;;;;;;;0.00;0.00;;;;;;;;;;5015613;28;20092;-84
2023/09/12 10:22:15;;;;;;;0.00;0.00;;;;;;;;;;5032437;28;20052;-83
2023/09/12 10:24:42;;;;;;;0.00;0.00;;;;;;;;;;5032218;28;20038;-85
2023/09/12 10:27:08;;;;;;;0.00;0.00;;;;;;;;;;5031983;28;20046;-84
2023/09/12 10:29:35;;;;;;;0.00;0.00;;;;;;;;;;5015204;28;20069;-84
2023/09/12 10:32:01;;;;;;;0.00;0.00;;;;;;;;;;5033188;28;20048;-84
2023/09/12 10:34:28;;;;;;;0.00;0.00;;;;;;;;;;5031873;28;20037;-84
2023/09/12 10:36:55;;;;;;;0.00;0.00;;;;;;;;;;5031712;28;20049;-82
2023/09/12 10:39:23;;;;;;;0.00;0.00;;;;;;;;;;5031118;28;20041;-82
2023/09/12 10:41:50;;;;;;;0.00;0.00;;;;;;;;;;5033049;28;20045;-82
2023/09/12 10:44:17;;;;;;;0.00;0.00;;;;;;;;;;5031752;28;20041;-82
2023/09/12 10:46:44;;;;;;;0.52;0.10;;;;;;;;;;5031699;28;20045;-83
2023/09/12 10:49:11;;;;;;;0.00;0.00;;;;;;;;;;5032904;28;20037;-82
2023/09/12 10:51:41;;;;;;;0.00;0.00;;;;;;;;;;5033530;28;20049;-83
2023/09/12 10:54:08;;;;;;;0.00;0.00;;;;;;;;;;5033202;28;20041;-83
2023/09/12 10:56:34;;;;;;;0.00;0.00;;;;;;;;;;5031536;28;20049;-83
2023/09/12 10:59:12;;;;;;;0.00;0.00;;;;;;;;;;5030987;28;20046;-83
2023/09/12 11:01:48;;;;;;;0.00;0.00;;;;;;;;;;5031353;28;20041;-83
2023/09/12 11:04:27;;;;;;;0.00;0.00;;;;;;;;;;5031385;28;20083;-84
2023/09/12 11:06:53;;;;;;;0.00;0.00;;;;;;;;;;5014838;28;20041;-81
2023/09/12 11:09:26;;;;;;;0.00;0.00;;;;;;;;;;5030814;28;20393;-83
2023/09/12 11:11:57;;;;;;;0.00;0.00;;;;;;;;;;5031378;28;20046;-82
2023/09/12 11:14:24;;;;;;;0.00;0.00;;;;;;;;;;5032343;28;20084;-83
2023/09/12 11:17:08;;;;;;;0.00;0.00;;;;;;;;;;5031106;28;20099;-82
2023/09/12 11:19:51;;;;;;;0.00;0.00;;;;;;;;;;5030981;28;20051;-83
2023/09/12 11:22:31;;;;;;;0.00;0.00;;;;;;;;;;5032593;28;20060;-83
2023/09/12 11:24:58;;;;;;;0.00;0.00;;;;;;;;;;5014495;28;20052;-83
2023/09/12 11:27:26;;;;;;;0.00;0.00;;;;;;;;;;5032374;28;20076;-83
2023/09/12 11:29:52;;;;;;;0.00;0.00;;;;;;;;;;5031050;28;20116;-83
2023/09/12 11:32:36;;;;;;;0.00;0.00;;;;;;;;;;5032523;28;20043;-83
2023/09/12 11:35:06;;;;;;;0.00;0.00;;;;;;;;;;5031236;28;20453;-84
2023/09/12 11:37:33;;;;;;;0.00;0.00;;;;;;;;;;5032470;28;20041;-84
2023/09/12 11:39:59;;;;;;;0.00;0.00;;;;;;;;;;5030400;28;20052;-82
2023/09/12 11:42:25;;;;;;;0.00;0.00;;;;;;;;;;5031206;28;20042;-84
2023/09/12 11:44:52;;;;;;;0.00;0.00;;;;;;;;;;5032099;28;20120;-84
2023/09/12 11:47:18;;;;;;;0.00;0.00;;;;;;;;;;5032263;28;20037;-84
2023/09/12 11:49:45;;;;;;;0.00;0.00;;;;;;;;;;5031916;28;20049;-84
2023/09/12 11:52:16;;;;;;;0.00;0.00;;;;;;;;;;5033412;28;20044;-85
2023/09/12 11:54:42;;;;;;;1.02;0.00;;;;;;;;;;5034412;28;20041;-84
2023/09/12 11:57:09;;;;;;;0.00;0.00;;;;;;;;;;5034640;28;20507;-85
2023/09/12 11:59:39;;;;;;;0.00;0.00;;;;;;;;;;5035534;28;20504;-84
2023/09/12 12:02:08;;;;;;;0.00;0.00;;;;;;;;;;5035922;28;20048;-84
2023/09/12 12:04:35;;;;;;;0.00;0.00;;;;;;;;;;5034352;28;20155;-84
2023/09/12 12:07:01;;;;;;;0.00;0.00;;;;;;;;;;5035811;28;20178;-84
2023/09/12 12:09:27;;;;;;;0.00;0.00;;;;;;;;;;5034182;28;20041;-85
2023/09/12 12:11:53;;;;;;;0.00;0.00;;;;;;;;;;5035763;28;20496;-84
2023/09/12 12:14:20;;;;;;;0.00;0.00;;;;;;;;;;5035478;28;20068;-84
2023/09/12 12:16:47;;;;;;;0.00;0.00;;;;;;;;;;5035665;28;20503;-84
2023/09/12 12:19:14;;;;;;;0.00;0.00;;;;;;;;;;5033901;28;20041;-85
2023/09/12 12:21:40;;;;;;;0.00;0.00;;;;;;;;;;5034229;28;20106;-84
2023/09/12 12:24:08;;;;;;;0.00;0.00;;;;;;;;;;5035301;28;20049;-85
2023/09/12 12:26:34;;;;;;;0.00;0.00;;;;;;;;;;5035326;28;20497;-84
2023/09/12 12:29:01;;;;;;;0.00;0.00;;;;;;;;;;5033670;28;20041;-85
2023/09/12 12:31:28;;;;;;;0.00;0.00;;;;;;;;;;5034136;28;20366;-85
2023/09/12 12:33:55;;;;;;;0.10;0.00;;;;;;;;;;5035244;28;20314;-84
2023/09/12 12:36:21;;;;;;;0.00;0.00;;;;;;;;;;5033710;28;20048;-84
2023/09/12 12:38:48;;;;;;;0.00;0.00;;;;;;;;;;5033999;28;20049;-84
2023/09/12 12:41:22;;;;;;;0.00;0.00;;;;;;;;;;5035123;28;20056;-84
2023/09/12 12:43:51;;;;;;;0.00;0.00;;;;;;;;;;5035337;28;20121;-84
2023/09/12 12:46:19;;;;;;;0.00;0.00;;;;;;;;;;5033391;28;20374;-84
2023/09/12 12:48:45;;;;;;;0.00;0.00;;;;;;;;;;5034776;28;20045;-84
2023/09/12 12:51:22;;;;;;;0.00;0.00;;;;;;;;;;5034569;28;20037;-84
2023/09/12 12:54:03;;;;;;;0.00;0.00;;;;;;;;;;5033725;28;20062;-84
2023/09/12 12:56:30;;;;;;;0.00;0.00;;;;;;;;;;5033443;28;20045;-83
2023/09/12 12:59:02;;;;;;;0.00;0.00;;;;;;;;;;5034645;28;20052;-84
2023/09/12 13:01:29;;;;;;;0.00;0.00;;;;;;;;;;5032889;28;20457;-84
2023/09/12 13:03:56;;;;;;;0.00;0.00;;;;;;;;;;5033106;28;20115;-84
2023/09/12 13:06:23;;;;;;;0.00;0.00;;;;;;;;;;5034609;28;20038;-84
2023/09/12 13:08:50;;;;;;;0.00;0.00;;;;;;;;;;5033264;28;20049;-84
2023/09/12 13:11:16;;;;;;;0.00;0.00;;;;;;;;;;5033474;28;20041;-84
2023/09/12 13:13:43;;;;;;;0.00;0.00;;;;;;;;;;5033156;28;20041;-84
2023/09/12 13:16:11;;;;;;;0.00;0.00;;;;;;;;;;5032870;28;20450;-84
2023/09/12 13:18:37;;;;;;;0.00;0.00;;;;;;;;;;5034514;28;20046;-84
2023/09/12 13:21:03;;;;;;;0.00;0.00;;;;;;;;;;5034043;28;20128;-84
2023/09/12 13:23:29;;;;;;;0.00;0.00;;;;;;;;;;5034170;28;20037;-84
2023/09/12 13:25:56;;;;;;;0.00;0.00;;;;;;;;;;5032637;28;20120;-84
2023/09/12 13:28:25;;;;;;;0.00;0.00;;;;;;;;;;5032756;28;20049;-84
2023/09/12 13:30:54;;;;;;;0.00;0.00;;;;;;;;;;5034080;28;20049;-84
2023/09/12 13:33:20;;;;;;;0.00;0.00;;;;;;;;;;5034309;28;20432;-84
2023/09/12 13:35:50;;;;;;;0.00;0.00;;;;;;;;;;5033973;28;20111;-84
2023/09/12 13:38:16;;;;;;;0.00;0.00;;;;;;;;;;5032956;28;20044;-84
2023/09/12 13:40:44;;;;;;;0.00;0.00;;;;;;;;;;5033637;28;20041;-85
2023/09/12 13:43:10;;;;;;;0.00;0.00;;;;;;;;;;5032546;28;20108;-84
2023/09/12 13:45:37;;;;;;;0.00;0.00;;;;;;;;;;5033850;28;20455;-84
2023/09/12 13:48:03;;;;;;;0.00;0.00;;;;;;;;;;5033776;28;20041;-85
2023/09/12 13:50:30;;;;;;;0.00;0.00;;;;;;;;;;5015825;28;20130;-86
2023/09/12 13:52:56;;;;;;;0.00;0.00;;;;;;;;;;5032743;28;20041;-86
2023/09/12 13:55:23;;;;;;;0.00;0.00;;;;;;;;;;5033289;28;20401;-85
2023/09/12 13:57:49;;;;;;;0.00;0.00;;;;;;;;;;5033407;28;20054;-85
2023/09/12 14:00:15;;;;;;;0.00;0.00;;;;;;;;;;5031709;28;20045;-85
2023/09/12 14:02:41;;;;;;;0.00;0.00;;;;;;;;;;5033358;28;20087;-85
2023/09/12 14:05:07;;;;;;;0.00;0.00;;;;;;;;;;5031999;28;20046;-85
2023/09/12 14:07:33;;;;;;;0.00;0.00;;;;;;;;;;5033414;28;20041;-84
2023/09/12 14:09:59;;;;;;;0.00;0.00;;;;;;;;;;5032269;28;20041;-84
2023/09/12 14:12:25;;;;;;;0.00;0.00;;;;;;;;;;5032431;28;20496;-83
2023/09/12 14:14:51;;;;;;;0.00;0.00;;;;;;;;;;5032833;28;20045;-84
2023/09/12 14:17:18;;;;;;;0.00;0.00;;;;;;;;;;5031823;28;20116;-85
2023/09/12 14:19:44;;;;;;;0.00;0.00;;;;;;;;;;5032255;28;20053;-84
2023/09/12 14:22:09;;;;;;;0.00;0.00;;;;;;;;;;5031640;28;20041;-83
2023/09/12 14:24:35;;;;;;;0.00;0.00;;;;;;;;;;5032789;28;20099;-84
2023/09/12 14:27:01;;;;;;;0.00;0.00;;;;;;;;;;5031640;28;20481;-84
2023/09/12 14:29:29;;;;;;;0.00;0.00;;;;;;;;;;5031972;28;20435;-84
2023/09/12 14:31:58;;;;;;;0.00;0.00;;;;;;;;;;5015744;28;20363;-85
2023/09/12 14:34:29;;;;;;;0.00;0.00;;;;;;;;;;5032027;28;20071;-84
2023/09/12 14:36:55;;;;;;;0.00;0.00;;;;;;;;;;5015190;28;20080;-85
2023/09/12 14:39:22;;;;;;;0.00;0.00;;;;;;;;;;5031771;28;20087;-84
2023/09/12 14:41:55;;;;;;;0.00;0.00;;;;;;;;;;5031555;28;20117;-84
2023/09/12 14:44:21;;;;;;;0.00;0.00;;;;;;;;;;5031855;28;20037;-84